Time;durP1;ratioP1;P1;durP2;ratioP2;P2;SDS_P1;SDS_P2;PMS_P1;PMS_P2;Temp;Humidity;BMP_temperature;BMP_pressure;BME280_temperature;BME280_humidity;BME280_pressure;Samples;Min_cycle;Max_cycle;Signal;HPM_P1;HPM_P2
2022/06/27 00:00:11;;;;;;;8.00;7.40;;;23.10;99.90;;;-141.84;58.57;20391.06;5070274;28;20703;-60
2022/06/27 00:02:40;;;;;;;7.50;6.90;;;23.10;99.90;;;-141.84;58.83;20342.28;5069998;28;20231;-58
2022/06/27 00:05:11;;;;;;;8.00;7.40;;;23.10;99.90;;;-141.84;59.18;20313.84;5070422;28;20299;-60
2022/06/27 00:07:40;;;;;;;8.18;7.57;;;23.00;99.90;;;-141.84;59.39;20352.44;5070851;28;20213;-60
2022/06/27 00:10:10;;;;;;;7.97;7.38;;;23.10;99.90;;;-141.84;59.53;20362.63;5071201;28;20583;-61
2022/06/27 00:12:39;;;;;;;8.55;7.95;;;23.00;99.90;;;-141.84;59.43;20309.75;5070039;28;20228;-60
2022/06/27 00:15:11;;;;;;;8.43;7.82;;;23.00;99.90;;;-141.84;59.79;20358.56;5070035;28;20220;-60
2022/06/27 00:17:40;;;;;;;8.45;7.85;;;23.00;99.90;;;-141.84;59.67;20309.75;5069994;28;20220;-60
2022/06/27 00:20:10;;;;;;;8.13;7.43;;;22.90;99.90;;;-141.84;60.04;20283.34;5086760;28;20224;-60
2022/06/27 00:22:38;;;;;;;8.10;7.30;;;22.90;99.90;;;-141.84;60.09;20309.75;5082899;28;20200;-60
2022/06/27 00:25:10;;;;;;;8.07;7.35;;;22.90;99.90;;;-141.84;60.48;20293.50;5070677;28;20277;-60
2022/06/27 00:27:38;;;;;;;8.43;7.72;;;22.80;99.90;;;-141.84;60.63;20279.28;5070120;28;20327;-61
2022/06/27 00:30:10;;;;;;;8.18;7.57;;;22.80;99.90;;;-141.84;60.39;20273.19;5070132;28;20259;-60
2022/06/27 00:32:39;;;;;;;8.35;7.65;;;22.80;99.90;;;-141.84;60.63;20242.69;5069835;28;20278;-60
2022/06/27 00:35:10;;;;;;;7.88;7.32;;;22.80;99.90;;;-141.84;60.48;20260.97;5070043;28;20731;-60
2022/06/27 00:37:39;;;;;;;8.10;7.50;;;22.80;99.90;;;-141.84;60.95;20230.50;5070682;28;20276;-59
2022/06/27 00:40:09;;;;;;;8.90;8.10;;;22.70;99.90;;;-141.84;61.25;20256.91;5070615;28;20772;-59
2022/06/27 00:42:37;;;;;;;8.30;7.63;;;22.70;99.90;;;-141.84;61.03;20250.81;5069916;28;20274;-59
2022/06/27 00:45:09;;;;;;;8.27;7.68;;;22.70;99.90;;;-141.84;61.26;20226.44;5069590;28;20216;-61
2022/06/27 00:47:37;;;;;;;8.27;7.68;;;22.60;99.90;;;-141.84;61.81;20214.22;5070645;28;20726;-60
2022/06/27 00:50:07;;;;;;;8.32;7.72;;;22.60;99.90;;;-141.84;61.64;20212.19;5074312;28;20303;-62
2022/06/27 00:52:36;;;;;;;8.50;7.88;;;22.50;99.90;;;-141.84;61.55;20226.44;5074405;28;20244;-60
2022/06/27 00:55:07;;;;;;;8.60;7.95;;;22.50;99.90;;;-141.84;61.81;20208.13;5073413;28;20229;-60
2022/06/27 00:57:35;;;;;;;9.50;8.63;;;22.50;99.90;;;-141.84;61.77;20238.63;5073119;28;20316;-59
2022/06/27 01:00:06;;;;;;;8.35;7.65;;;22.50;99.90;;;-141.84;62.04;20185.78;5073283;28;20228;-60
2022/06/27 01:02:36;;;;;;;8.70;7.93;;;22.50;99.90;;;-141.84;62.14;20183.75;5073110;28;20248;-61
2022/06/27 01:05:06;;;;;;;8.40;7.70;;;22.40;99.90;;;-141.84;62.25;20204.06;5073838;28;20599;-60
2022/06/27 01:07:36;;;;;;;9.48;8.68;;;22.40;99.90;;;-141.84;62.26;20191.88;5073873;28;20217;-61
2022/06/27 01:10:05;;;;;;;8.60;8.00;;;22.40;99.90;;;-141.84;62.70;20151.22;5073563;28;20248;-59
2022/06/27 01:12:34;;;;;;;8.40;7.75;;;22.40;99.90;;;-141.84;62.60;20187.81;5072908;28;20226;-60
2022/06/27 01:15:06;;;;;;;9.00;8.30;;;22.40;99.90;;;-141.84;62.89;20169.53;5077744;28;20277;-60
2022/06/27 01:17:38;;;;;;;9.32;8.63;;;22.40;99.90;;;-141.84;62.75;20181.72;5093088;28;20312;-63
2022/06/27 01:20:08;;;;;;;8.65;7.95;;;22.30;99.90;;;-141.84;62.50;20169.53;5093556;28;20774;-60
2022/06/27 01:22:37;;;;;;;8.50;7.90;;;22.30;99.90;;;-141.84;62.44;20177.66;5086238;28;20200;-61
2022/06/27 01:25:08;;;;;;;9.27;8.57;;;22.30;99.90;;;-141.84;63.00;20161.38;5073457;28;20215;-60
2022/06/27 01:27:37;;;;;;;9.18;8.48;;;22.30;99.90;;;-141.84;62.95;20177.66;5072655;28;20336;-61
2022/06/27 01:30:06;;;;;;;8.82;8.13;;;22.30;99.90;;;-141.84;63.01;20179.69;5072963;28;20255;-59
2022/06/27 01:32:35;;;;;;;9.60;8.73;;;22.30;99.90;;;-141.84;63.65;20130.91;5072535;28;20232;-59
2022/06/27 01:35:04;;;;;;;9.48;8.70;;;22.20;99.90;;;-141.84;63.62;20159.34;5072975;28;20240;-58
2022/06/27 01:37:32;;;;;;;9.45;8.65;;;22.20;99.90;;;-141.84;63.66;20147.16;5073088;28;20700;-60
2022/06/27 01:40:03;;;;;;;8.90;8.30;;;22.10;99.90;;;-141.84;63.71;20143.09;5073269;28;20708;-60
2022/06/27 01:42:32;;;;;;;9.52;8.75;;;22.10;99.90;;;-141.84;63.42;20145.13;5072450;28;21260;-60
2022/06/27 01:45:01;;;;;;;9.38;8.60;;;22.10;99.90;;;-141.84;63.54;20149.19;5072306;28;20230;-61
2022/06/27 01:47:29;;;;;;;9.57;8.88;;;22.10;99.90;;;-141.84;63.61;20159.34;5072368;28;20260;-60
2022/06/27 01:49:58;;;;;;;9.32;8.52;;;22.10;99.90;;;-141.84;64.46;20122.78;5072939;28;20307;-59
2022/06/27 01:52:29;;;;;;;9.27;8.57;;;22.10;99.90;;;-141.84;64.76;20092.28;5073170;28;20307;-60
2022/06/27 01:54:58;;;;;;;9.20;8.50;;;22.00;99.90;;;-141.84;65.25;20088.22;5072439;28;20232;-61
2022/06/27 01:57:27;;;;;;;9.23;8.50;;;22.00;99.90;;;-141.84;65.46;20090.25;5072311;28;20223;-60
2022/06/27 01:59:54;;;;;;;8.57;7.93;;;21.90;99.90;;;-141.84;64.76;20084.16;5071198;28;20227;-61
2022/06/27 02:02:22;;;;;;;9.27;8.57;;;21.90;99.90;;;-141.84;65.63;20102.44;5071879;28;20607;-59
2022/06/27 02:04:52;;;;;;;9.35;8.55;;;21.80;99.90;;;-141.84;65.83;20055.69;5072160;28;20212;-60
2022/06/27 02:07:21;;;;;;;9.48;8.70;;;21.80;99.90;;;-141.84;66.09;20029.28;5072814;28;20252;-59
2022/06/27 02:09:49;;;;;;;9.43;8.80;;;21.80;99.90;;;-141.84;66.07;20037.41;5072246;28;20790;-59
2022/06/27 02:12:22;;;;;;;8.98;8.27;;;21.80;99.90;;;-141.84;66.06;20057.72;5085087;28;20220;-59
2022/06/27 02:14:54;;;;;;;10.00;9.20;;;21.80;99.90;;;-141.84;66.43;20055.69;5091933;28;20248;-59
2022/06/27 02:17:23;;;;;;;9.73;9.02;;;21.70;99.90;;;-141.84;66.23;20053.66;5092060;28;20242;-61
2022/06/27 02:19:51;;;;;;;8.82;8.13;;;21.70;99.90;;;-141.84;66.06;20027.25;5092302;28;20298;-62
2022/06/27 02:22:20;;;;;;;9.75;8.90;;;21.70;99.90;;;-141.84;66.03;20029.28;5087678;28;20200;-60
2022/06/27 02:24:48;;;;;;;9.65;8.95;;;21.70;99.90;;;-141.84;66.17;20061.78;5072013;28;20232;-59
2022/06/27 02:27:17;;;;;;;9.45;8.82;;;21.80;99.90;;;-141.84;65.89;20061.78;5071766;28;20315;-60
2022/06/27 02:29:46;;;;;;;9.38;8.68;;;21.70;99.90;;;-141.84;65.93;20071.97;5071254;28;20300;-59
2022/06/27 02:32:16;;;;;;;9.60;8.80;;;21.80;99.90;;;-141.84;66.17;20094.31;5071148;28;20224;-61
2022/06/27 02:34:44;;;;;;;10.20;9.40;;;21.70;99.90;;;-141.84;66.54;20049.59;5071060;28;20224;-59
2022/06/27 02:37:13;;;;;;;8.85;8.25;;;21.70;99.90;;;-141.84;66.54;19986.59;5071859;28;20201;-60
2022/06/27 02:39:45;;;;;;;9.52;8.82;;;21.70;99.90;;;-141.84;66.79;20017.09;5070874;28;20256;-60
2022/06/27 02:42:18;;;;;;;10.38;9.52;;;21.70;99.90;;;-141.84;66.33;20057.72;5071451;28;20231;-60
2022/06/27 02:44:49;;;;;;;10.30;9.40;;;21.70;99.90;;;-141.84;66.22;20045.53;5070841;28;20311;-60
2022/06/27 02:47:23;;;;;;;10.13;9.32;;;21.70;99.90;;;-141.84;66.51;20059.75;5069493;28;20254;-60
2022/06/27 02:49:51;;;;;;;10.38;9.63;;;21.70;99.90;;;-141.84;66.38;20031.31;5070400;28;20729;-59
2022/06/27 02:52:28;;;;;;;10.75;9.85;;;21.70;99.90;;;-141.84;66.75;20063.81;5071740;28;20240;-60
2022/06/27 02:55:04;;;;;;;10.73;9.75;;;21.70;99.90;;;-141.84;66.66;20015.03;5070377;28;20234;-60
2022/06/27 02:57:43;;;;;;;10.90;10.07;;;21.60;99.90;;;-141.84;66.68;20002.84;5070592;28;20244;-59
2022/06/27 03:00:13;;;;;;;10.52;9.73;;;21.60;99.90;;;-141.84;66.77;20013.00;5070674;28;20255;-59
2022/06/27 03:02:45;;;;;;;10.48;9.68;;;21.60;99.90;;;-141.84;66.82;20013.00;5070959;28;20260;-61
2022/06/27 03:05:13;;;;;;;10.40;9.45;;;21.60;99.90;;;-141.84;66.68;20041.47;5070432;28;20307;-60
2022/06/27 03:07:44;;;;;;;10.48;9.63;;;21.60;99.90;;;-141.84;67.28;19992.69;5076346;28;20698;-61
2022/06/27 03:10:13;;;;;;;9.85;9.10;;;21.60;99.90;;;-141.84;67.83;19962.19;5090779;28;20219;-59
2022/06/27 03:12:42;;;;;;;10.55;9.65;;;21.60;99.90;;;-141.84;68.20;20031.31;5091122;28;20231;-59
2022/06/27 03:15:11;;;;;;;10.55;9.60;;;21.50;99.90;;;-141.84;68.24;19974.41;5090501;28;20614;-61
2022/06/27 03:17:39;;;;;;;10.27;9.38;;;21.50;99.90;;;-141.84;67.73;19988.63;5090165;28;20230;-61
2022/06/27 03:20:11;;;;;;;9.90;9.20;;;21.50;99.90;;;-141.84;67.39;19986.59;5090435;28;20247;-62
2022/06/27 03:22:39;;;;;;;10.25;9.45;;;21.60;99.90;;;-141.84;67.64;19982.53;5083397;28;20227;-61
2022/06/27 03:25:09;;;;;;;10.15;9.35;;;21.60;99.90;;;-141.84;67.71;19980.50;5070093;28;20235;-60
2022/06/27 03:27:37;;;;;;;10.70;9.80;;;21.60;99.90;;;-141.84;67.14;20021.16;5070091;28;20604;-60
2022/06/27 03:30:07;;;;;;;10.55;9.65;;;21.70;99.90;;;-141.84;67.06;20013.00;5070116;28;20303;-60
2022/06/27 03:32:35;;;;;;;9.95;9.25;;;21.70;99.90;;;-141.84;66.77;20000.81;5070013;28;20307;-60
2022/06/27 03:35:03;;;;;;;9.85;9.15;;;21.80;99.90;;;-141.84;66.47;20023.19;5069991;28;20641;-60
2022/06/27 03:37:33;;;;;;;10.15;9.25;;;21.80;99.90;;;-141.84;66.34;20049.59;5070843;28;20196;-61
2022/06/27 03:40:02;;;;;;;9.98;9.27;;;21.80;99.90;;;-141.84;66.33;20027.25;5069985;28;20224;-59
2022/06/27 03:42:30;;;;;;;10.38;9.55;;;21.90;99.90;;;-141.84;65.60;20059.75;5070454;28;20316;-60
2022/06/27 03:44:58;;;;;;;10.00;9.10;;;22.00;99.90;;;-141.84;65.81;20076.03;5069768;28;20687;-59
2022/06/27 03:47:26;;;;;;;9.63;8.93;;;22.00;99.90;;;-141.84;65.73;20074.00;5070070;28;20252;-60
2022/06/27 03:50:03;;;;;;;10.23;9.43;;;22.00;99.90;;;-141.84;66.21;20078.06;5069930;28;20331;-59
2022/06/27 03:52:32;;;;;;;9.88;9.18;;;22.10;99.90;;;-141.84;65.51;20080.09;5071263;28;20220;-58
2022/06/27 03:55:00;;;;;;;10.30;9.40;;;22.10;99.90;;;-141.84;65.20;20090.25;5070009;28;20719;-60
2022/06/27 03:57:28;;;;;;;10.73;9.73;;;22.20;99.90;;;-141.84;64.89;20122.78;5069986;28;20285;-60
2022/06/27 03:59:56;;;;;;;10.30;9.40;;;22.20;99.90;;;-141.84;64.86;20100.41;5069685;28;20776;-60
2022/06/27 04:02:27;;;;;;;10.77;9.48;;;22.20;99.90;;;-141.84;64.71;20108.53;5070017;28;20231;-59
2022/06/27 04:04:55;;;;;;;10.35;9.45;;;22.20;99.90;;;-141.84;65.09;20100.41;5083764;28;20675;-60
2022/06/27 04:07:23;;;;;;;9.98;9.25;;;22.20;99.90;;;-141.84;65.10;20082.13;5090360;28;20200;-60
2022/06/27 04:09:53;;;;;;;10.75;9.95;;;22.20;99.90;;;-141.84;64.29;20122.78;5089747;28;20255;-60
2022/06/27 04:12:21;;;;;;;10.48;9.68;;;22.30;99.90;;;-141.84;64.39;20114.63;5090358;28;20606;-60
2022/06/27 04:14:49;;;;;;;10.43;9.63;;;22.30;99.90;;;-141.84;64.51;20084.16;5090291;28;20236;-60
2022/06/27 04:17:17;;;;;;;10.38;9.57;;;22.30;99.90;;;-141.84;65.22;20149.19;5089633;28;20242;-59
2022/06/27 04:19:45;;;;;;;10.27;9.48;;;22.30;99.90;;;-141.84;65.02;20104.47;5090049;28;20285;-62
2022/06/27 04:22:15;;;;;;;10.23;9.43;;;22.30;99.90;;;-141.84;65.13;20124.81;5086455;28;20296;-60
2022/06/27 04:24:43;;;;;;;10.15;9.20;;;22.30;99.90;;;-141.84;65.11;20088.22;5073280;28;20228;-60
2022/06/27 04:27:13;;;;;;;10.43;9.52;;;22.30;99.90;;;-141.84;64.74;20128.88;5073233;28;20307;-59
2022/06/27 04:29:41;;;;;;;10.85;10.05;;;22.40;99.90;;;-141.84;64.46;20126.84;5073369;28;20403;-60
2022/06/27 04:32:10;;;;;;;10.77;9.88;;;22.40;99.90;;;-141.84;63.96;20139.03;5073191;28;20316;-60
2022/06/27 04:34:38;;;;;;;10.45;9.57;;;22.50;99.90;;;-141.84;64.15;20126.84;5073803;28;20566;-60
2022/06/27 04:37:07;;;;;;;11.43;10.52;;;22.50;99.90;;;-141.84;63.87;20139.03;5073409;28;20556;-59
2022/06/27 04:39:35;;;;;;;10.20;9.40;;;22.50;99.90;;;-141.84;63.70;20147.16;5073204;28;20220;-60
2022/06/27 04:42:06;;;;;;;10.45;9.63;;;22.60;99.90;;;-141.84;63.48;20175.63;5073490;28;20254;-60
2022/06/27 04:44:37;;;;;;;10.70;9.90;;;22.70;99.90;;;-141.84;62.96;20212.19;5073188;28;20220;-60
2022/06/27 04:47:07;;;;;;;9.85;9.15;;;22.80;99.90;;;-141.84;61.47;20240.66;5072952;28;20248;-61
2022/06/27 04:49:36;;;;;;;10.02;9.25;;;23.00;99.90;;;-141.84;60.97;20248.78;5073436;28;20220;-60
2022/06/27 04:52:06;;;;;;;9.80;9.00;;;23.10;99.90;;;-141.84;60.54;20378.88;5073332;28;20314;-59
2022/06/27 04:54:35;;;;;;;9.82;8.82;;;23.50;99.90;;;-141.84;54.00;20763.06;5072897;28;20311;-60
2022/06/27 04:57:05;;;;;;;9.75;8.85;;;24.70;99.90;;;-141.84;47.79;21187.97;5072947;28;20233;-59
2022/06/27 04:59:35;;;;;;;9.02;8.18;;;26.20;99.90;;;-141.84;43.53;21570.19;5073753;28;20232;-60
2022/06/27 05:02:04;;;;;;;8.73;8.02;;;27.60;99.90;;;-141.84;40.14;21948.41;5092940;28;20230;-60
2022/06/27 05:04:32;;;;;;;8.77;8.02;;;29.00;99.90;;;-141.84;37.50;22285.97;5093566;28;20206;-59
2022/06/27 05:07:01;;;;;;;8.57;7.80;;;30.10;99.90;;;-141.84;36.31;22493.41;5092517;28;20319;-61
2022/06/27 05:09:29;;;;;;;8.48;7.65;;;31.00;99.90;;;-141.84;34.76;22743.56;5092950;28;20315;-60
2022/06/27 05:11:57;;;;;;;7.97;7.28;;;32.00;99.90;;;-141.84;33.86;22887.97;5093089;28;20224;-60
2022/06/27 05:14:25;;;;;;;7.75;7.15;;;32.30;99.90;;;-141.84;33.57;23034.44;5092623;28;20640;-61
2022/06/27 05:16:55;;;;;;;7.75;7.10;;;33.10;99.90;;;-141.84;32.58;23152.41;5092588;28;20200;-60
2022/06/27 05:19:23;;;;;;;7.70;7.00;;;33.50;99.90;;;-141.84;31.86;23319.19;5083432;28;20681;-61
2022/06/27 05:21:51;;;;;;;7.78;7.10;;;33.60;99.90;;;-141.84;31.83;23363.94;5072300;28;20226;-61
2022/06/27 05:24:22;;;;;;;7.65;6.97;;;34.10;99.90;;;-141.84;31.45;23406.66;5072869;28;20403;-61
2022/06/27 05:26:50;;;;;;;7.57;6.88;;;34.10;99.90;;;-141.84;30.98;23542.97;5072271;28;20228;-60
2022/06/27 05:29:18;;;;;;;7.50;6.88;;;34.50;99.90;;;-141.84;31.00;23547.03;5072069;28;20232;-60
2022/06/27 05:31:46;;;;;;;7.18;6.57;;;34.50;99.90;;;-141.84;30.72;23618.25;5071877;28;20734;-61
2022/06/27 05:34:16;;;;;;;7.05;6.35;;;34.10;99.90;;;-141.84;30.21;23626.38;5072868;28;20208;-60
2022/06/27 05:36:44;;;;;;;6.80;6.18;;;34.20;99.90;;;-141.84;30.48;23567.38;5072108;28;20642;-62
2022/06/27 05:39:13;;;;;;;7.65;6.15;;;33.80;99.90;;;-141.84;31.26;23376.16;5072137;28;20224;-60
2022/06/27 05:41:43;;;;;;;7.22;6.55;;;33.70;99.90;;;-141.84;32.17;23184.94;5072100;28;20335;-60
2022/06/27 05:44:11;;;;;;;8.05;6.65;;;33.40;99.90;;;-141.84;33.38;22847.28;5072427;28;20291;-60
2022/06/27 05:46:40;;;;;;;11.02;7.15;;;32.50;99.90;;;-141.84;35.50;22481.22;5071064;28;20296;-59
2022/06/27 05:49:11;;;;;;;8.30;7.60;;;31.90;99.90;;;-141.84;37.22;22141.59;5071503;28;20224;-62
2022/06/27 05:51:41;;;;;;;8.65;7.95;;;31.20;99.90;;;-141.84;38.91;21919.94;5071729;28;20224;-60
2022/06/27 05:54:10;;;;;;;8.48;7.88;;;30.50;99.90;;;-141.84;40.77;21775.56;5072382;28;20221;-60
2022/06/27 05:56:39;;;;;;;8.73;8.05;;;30.00;99.90;;;-141.84;41.14;21706.44;5079033;28;20263;-59
2022/06/27 05:59:07;;;;;;;9.38;8.57;;;29.70;99.90;;;-141.84;41.99;21651.53;5080827;28;20632;-60
2022/06/27 06:01:36;;;;;;;8.20;7.45;;;29.50;99.90;;;-141.84;42.02;21602.72;5071980;28;20757;-60
2022/06/27 06:04:05;;;;;;;9.10;8.25;;;29.30;99.90;;;-141.84;42.85;21541.72;5072427;28;20252;-59
2022/06/27 06:06:33;;;;;;;9.32;7.82;;;29.20;99.90;;;-141.84;43.43;21501.06;5071566;28;20765;-59
2022/06/27 06:09:03;;;;;;;8.27;7.68;;;29.10;99.90;;;-141.84;43.54;21499.03;5071508;28;20229;-59
2022/06/27 06:11:32;;;;;;;8.13;7.53;;;28.90;99.90;;;-141.84;43.44;21505.13;5071631;28;20235;-59
2022/06/27 06:14:00;;;;;;;9.95;7.18;;;29.00;99.90;;;-141.84;43.78;21429.91;5071624;28;20188;-60
2022/06/27 06:16:29;;;;;;;7.65;7.05;;;28.80;99.90;;;-141.84;44.43;21413.63;5071765;28;20287;-61
2022/06/27 06:18:59;;;;;;;7.95;7.30;;;28.50;99.90;;;-141.84;45.05;21332.31;5070796;28;20321;-60
2022/06/27 06:21:29;;;;;;;8.38;7.68;;;28.40;99.90;;;-141.84;45.01;21381.09;5071217;28;20715;-60
2022/06/27 06:23:57;;;;;;;8.23;7.53;;;28.30;99.90;;;-141.84;45.07;21303.84;5052511;28;20229;-62
2022/06/27 06:26:27;;;;;;;8.50;7.80;;;28.30;99.90;;;-141.84;44.88;21348.56;5051448;28;20307;-59
2022/06/27 06:29:01;;;;;;;8.00;7.32;;;28.20;99.90;;;-141.84;44.62;21415.66;5060383;28;20686;-59
2022/06/27 06:31:29;;;;;;;9.27;8.48;;;28.30;99.90;;;-141.84;44.12;21454.28;5071636;28;20215;-59
2022/06/27 06:33:57;;;;;;;8.68;7.97;;;28.40;99.90;;;-141.84;43.63;21507.16;5070585;28;20228;-59
2022/06/27 06:36:26;;;;;;;8.57;7.85;;;28.70;99.90;;;-141.84;43.69;21509.19;5071233;28;20307;-59
2022/06/27 06:38:55;;;;;;;7.95;7.40;;;28.80;99.90;;;-141.84;43.35;21486.81;5071075;28;21139;-60
2022/06/27 06:41:23;;;;;;;8.38;7.68;;;28.80;99.90;;;-141.84;43.27;21501.06;5071228;28;20242;-59
2022/06/27 06:43:53;;;;;;;7.15;6.65;;;28.90;99.90;;;-141.84;43.19;21529.53;5071219;28;20664;-60
2022/06/27 06:46:21;;;;;;;7.85;7.15;;;29.00;99.90;;;-141.84;42.09;21610.84;5070688;28;20247;-60
2022/06/27 06:48:51;;;;;;;7.32;6.65;;;29.10;99.90;;;-141.84;42.16;21588.50;5070519;28;20315;-59
2022/06/27 06:51:20;;;;;;;7.32;6.63;;;29.10;99.90;;;-141.84;42.18;21647.47;5070568;28;20229;-61
2022/06/27 06:53:49;;;;;;;6.93;6.43;;;29.20;99.90;;;-141.84;42.11;21671.84;5086172;28;20250;-61
2022/06/27 06:56:17;;;;;;;7.60;7.00;;;29.30;99.90;;;-141.84;42.02;21673.88;5091165;28;20247;-60
2022/06/27 06:58:45;;;;;;;8.10;7.30;;;29.50;99.90;;;-141.84;41.70;21702.34;5082640;28;20291;-60
2022/06/27 07:01:15;;;;;;;7.55;6.95;;;29.50;99.90;;;-141.84;41.79;21659.66;5070901;28;20566;-61
2022/06/27 07:03:43;;;;;;;7.22;6.70;;;29.40;99.90;;;-141.84;42.16;21606.78;5070598;28;20231;-58
2022/06/27 07:06:12;;;;;;;8.07;7.38;;;29.20;99.90;;;-141.84;43.09;21558.00;5070694;28;20235;-60
2022/06/27 07:08:40;;;;;;;8.00;7.25;;;29.00;99.90;;;-141.84;43.50;21527.50;5070331;28;20229;-59
2022/06/27 07:11:09;;;;;;;7.53;7.03;;;28.90;99.90;;;-141.84;43.03;21574.25;5070273;28;20243;-59
2022/06/27 07:13:38;;;;;;;7.50;6.80;;;28.80;99.90;;;-141.84;43.38;21531.56;5070500;28;20419;-60
2022/06/27 07:16:06;;;;;;;6.85;6.35;;;28.80;99.90;;;-141.84;43.14;21604.75;5070663;28;20216;-59
2022/06/27 07:18:37;;;;;;;7.82;7.00;;;28.90;99.90;;;-141.84;43.64;21560.03;5070058;28;20220;-60
2022/06/27 07:21:06;;;;;;;6.72;6.10;;;28.90;99.90;;;-141.84;43.71;21527.50;5070474;28;20563;-60
2022/06/27 07:23:34;;;;;;;7.03;6.47;;;29.00;99.90;;;-141.84;43.21;21527.50;5054436;28;20279;-59
2022/06/27 07:26:03;;;;;;;6.97;6.30;;;28.90;99.90;;;-141.84;43.45;21598.66;5050675;28;20246;-61
2022/06/27 07:28:31;;;;;;;6.93;6.25;;;29.00;99.90;;;-141.84;43.28;21558.00;5056708;28;20215;-59
2022/06/27 07:31:00;;;;;;;7.22;6.60;;;29.10;99.90;;;-141.84;43.28;21625.09;5069989;28;20235;-60
2022/06/27 07:33:29;;;;;;;7.30;6.60;;;29.10;99.90;;;-141.84;43.21;21562.06;5069645;28;20579;-60
2022/06/27 07:35:58;;;;;;;6.85;6.25;;;29.20;99.90;;;-141.84;43.00;21619.00;5070210;28;20341;-60
2022/06/27 07:38:27;;;;;;;7.22;6.63;;;29.30;99.90;;;-141.84;41.96;21684.06;5070026;28;20247;-59
2022/06/27 07:40:56;;;;;;;6.63;6.00;;;29.40;99.90;;;-141.84;41.65;21680.00;5070249;28;20530;-60
2022/06/27 07:43:24;;;;;;;6.57;6.05;;;29.50;99.90;;;-141.84;41.20;21751.16;5070507;28;20209;-60
2022/06/27 07:45:55;;;;;;;6.72;6.13;;;29.60;99.90;;;-141.84;41.16;21747.09;5070215;28;20234;-61
2022/06/27 07:48:23;;;;;;;6.32;5.75;;;29.70;99.90;;;-141.84;40.90;21718.63;5069546;28;20235;-59
2022/06/27 07:50:52;;;;;;;6.50;5.63;;;29.80;99.90;;;-141.84;41.48;21736.94;5069841;28;20288;-61
2022/06/27 07:53:21;;;;;;;6.20;5.63;;;29.70;99.90;;;-141.84;40.79;21714.56;5069837;28;20224;-59
2022/06/27 07:55:53;;;;;;;6.03;5.43;;;29.80;99.90;;;-141.84;41.61;21741.00;5069727;28;20570;-59
2022/06/27 07:58:26;;;;;;;6.32;5.72;;;29.80;99.90;;;-141.84;40.96;21720.66;5074147;28;20292;-60
2022/06/27 08:00:54;;;;;;;5.38;4.97;;;29.80;99.90;;;-141.84;41.26;21700.31;5073839;28;20784;-60
2022/06/27 08:03:39;;;;;;;5.60;5.13;;;29.70;99.90;;;-141.84;40.72;21730.81;5073586;28;20307;-59
2022/06/27 08:06:12;;;;;;;6.07;5.50;;;29.70;99.90;;;-141.84;40.76;21730.81;5074108;28;20415;-60
2022/06/27 08:08:44;;;;;;;5.43;5.03;;;29.70;99.90;;;-141.84;40.81;21718.63;5073616;28;20609;-60
2022/06/27 08:11:15;;;;;;;5.45;5.00;;;29.60;99.90;;;-141.84;40.19;21720.66;5073594;28;20228;-61
2022/06/27 08:13:45;;;;;;;5.10;4.72;;;29.50;99.90;;;-141.84;41.13;21686.09;5073608;28;20241;-60
2022/06/27 08:16:14;;;;;;;5.50;4.82;;;29.40;99.90;;;-141.84;41.47;21635.25;5074528;28;20205;-60
2022/06/27 08:18:44;;;;;;;5.68;5.20;;;29.30;99.90;;;-141.84;41.11;21631.19;5073314;28;20224;-59
2022/06/27 08:21:13;;;;;;;5.10;4.70;;;29.30;99.90;;;-141.84;40.39;21657.63;5073521;28;20251;-59
2022/06/27 08:23:43;;;;;;;6.35;4.88;;;29.30;99.90;;;-141.84;40.60;21680.00;5073560;28;20224;-60
2022/06/27 08:26:12;;;;;;;5.25;4.82;;;29.30;99.90;;;-141.84;40.22;21738.97;5073439;28;20231;-59
2022/06/27 08:28:42;;;;;;;5.80;4.30;;;29.40;99.90;;;-141.84;39.24;21785.72;5073729;28;20737;-59
2022/06/27 08:31:12;;;;;;;4.88;4.50;;;29.60;99.90;;;-141.84;40.05;21745.06;5073321;28;20270;-60
2022/06/27 08:33:43;;;;;;;6.43;4.60;;;29.60;99.90;;;-141.84;39.32;21783.69;5072910;28;20255;-59
2022/06/27 08:36:14;;;;;;;5.35;4.68;;;29.70;99.90;;;-141.84;39.42;21810.13;5073728;28;20252;-60
2022/06/27 08:38:48;;;;;;;5.00;4.63;;;29.70;99.90;;;-141.84;38.87;21893.50;5073472;28;20328;-59
2022/06/27 08:41:18;;;;;;;5.60;5.18;;;29.90;99.90;;;-141.84;38.68;21907.72;5073053;28;20707;-60
2022/06/27 08:43:47;;;;;;;5.40;4.90;;;30.00;99.90;;;-141.84;38.30;21950.44;5073243;28;20287;-58
2022/06/27 08:46:18;;;;;;;5.63;5.13;;;30.20;99.90;;;-141.84;38.24;21954.50;5073965;28;20266;-59
2022/06/27 08:48:49;;;;;;;5.57;5.18;;;30.20;99.90;;;-141.84;37.75;21985.00;5072925;28;20267;-60
2022/06/27 08:51:20;;;;;;;5.50;5.10;;;30.30;99.90;;;-141.84;37.96;22027.72;5073148;28;20232;-59
2022/06/27 08:53:53;;;;;;;5.13;4.72;;;30.50;99.90;;;-141.84;37.09;22088.72;5072925;28;20683;-61
2022/06/27 08:56:24;;;;;;;5.43;4.93;;;30.70;99.90;;;-141.84;37.49;22056.19;5073348;28;20315;-60
2022/06/27 08:58:55;;;;;;;4.70;4.40;;;30.60;99.90;;;-141.84;37.31;22102.94;5073027;28;20211;-60
2022/06/27 09:01:27;;;;;;;5.40;5.00;;;30.70;99.90;;;-141.84;36.83;22133.44;5073407;28;20276;-61
2022/06/27 09:04:01;;;;;;;5.15;4.75;;;30.80;99.90;;;-141.84;37.01;22143.63;5072810;28;20232;-59
2022/06/27 09:06:35;;;;;;;5.30;4.90;;;30.90;99.90;;;-141.84;36.30;22210.72;5072980;28;20228;-59
2022/06/27 09:09:11;;;;;;;4.60;4.30;;;31.10;99.90;;;-141.84;36.13;22204.63;5072278;28;20307;-61
2022/06/27 09:11:44;;;;;;;5.13;4.72;;;31.10;99.90;;;-141.84;35.62;22267.66;5072449;28;20319;-60
2022/06/27 09:14:36;;;;;;;5.97;4.18;;;31.30;99.90;;;-141.84;36.06;22151.75;5072807;28;20353;-59
2022/06/27 09:17:09;;;;;;;5.15;4.20;;;31.20;99.90;;;-141.84;36.20;22168.03;5072510;28;20758;-60
2022/06/27 09:19:49;;;;;;;4.75;4.35;;;31.10;99.90;;;-141.84;36.20;22151.75;5072970;28;20606;-60
2022/06/27 09:22:20;;;;;;;5.28;4.88;;;31.00;99.90;;;-141.84;36.57;22198.53;5067702;28;20212;-61
2022/06/27 09:25:04;;;;;;;4.78;4.45;;;31.00;99.90;;;-141.84;36.83;22202.59;5052548;28;20804;-60
2022/06/27 09:27:42;;;;;;;5.53;5.05;;;31.10;99.90;;;-141.84;37.94;22064.31;5053127;28;20275;-60
2022/06/27 09:30:28;;;;;;;5.40;4.95;;;31.00;99.90;;;-141.84;37.77;22066.34;5072079;28;20273;-60
2022/06/27 09:33:00;;;;;;;5.15;4.72;;;31.00;99.90;;;-141.84;37.37;22100.91;5071871;28;20673;-60
2022/06/27 09:35:32;;;;;;;5.07;4.45;;;31.00;99.90;;;-141.84;37.02;22143.63;5072644;28;20686;-61
2022/06/27 09:38:02;;;;;;;4.95;4.55;;;31.00;99.90;;;-141.84;36.88;22155.81;5072218;28;20181;-59
2022/06/27 09:40:34;;;;;;;4.47;4.10;;;31.00;99.90;;;-141.84;36.25;22172.09;5073080;28;20548;-59
2022/06/27 09:43:08;;;;;;;4.40;4.00;;;31.10;99.90;;;-141.84;36.40;22151.75;5092019;28;20215;-61
2022/06/27 09:45:37;;;;;;;4.70;4.30;;;31.00;99.90;;;-141.84;36.67;22151.75;5080575;28;20221;-59
2022/06/27 09:48:16;;;;;;;4.22;3.83;;;31.10;99.90;;;-141.84;35.65;22200.56;5070888;28;20604;-58
2022/06/27 09:50:47;;;;;;;4.47;4.18;;;31.10;99.90;;;-141.84;35.35;22231.06;5051855;28;20245;-59
2022/06/27 09:53:17;;;;;;;4.60;4.30;;;31.10;99.90;;;-141.84;35.44;22153.78;5052139;28;20244;-60
2022/06/27 09:55:50;;;;;;;5.22;4.78;;;31.00;99.90;;;-141.84;36.54;22076.50;5052117;28;20186;-60
2022/06/27 09:58:19;;;;;;;4.97;4.53;;;30.90;99.90;;;-141.84;37.06;22021.59;5056809;28;20219;-60
2022/06/27 10:00:48;;;;;;;4.90;4.50;;;30.70;99.90;;;-141.84;37.24;22041.94;5071311;28;20258;-62
2022/06/27 10:03:17;;;;;;;4.82;4.43;;;30.70;99.90;;;-141.84;36.40;22082.63;5071314;28;20241;-59
2022/06/27 10:05:46;;;;;;;5.20;4.80;;;30.70;99.90;;;-141.84;36.88;22058.22;5071386;28;20746;-60
2022/06/27 10:08:16;;;;;;;6.32;4.80;;;30.70;99.90;;;-141.84;36.81;22029.75;5071844;28;20303;-62
2022/06/27 10:11:10;;;;;;;5.45;4.82;;;30.60;99.90;;;-141.84;37.26;22052.09;5071277;28;20209;-60
2022/06/27 10:13:42;;;;;;;5.32;4.70;;;30.60;99.90;;;-141.84;36.91;22009.41;5071448;28;20432;-60
2022/06/27 10:16:13;;;;;;;5.82;5.43;;;30.60;99.90;;;-141.84;38.15;21982.97;5071906;28;20216;-60